sensor_id;sensor_type;location;lat;lon;timestamp;temperature;humidity
49679;DHT22;35570;48.218;16.326;2023-02-28T00:00:34;2.40;66.10
49679;DHT22;35570;48.218;16.326;2023-02-28T00:03:01;2.90;67.30
49679;DHT22;35570;48.218;16.326;2023-02-28T00:05:28;2.90;66.80
49679;DHT22;35570;48.218;16.326;2023-02-28T00:07:55;2.30;66.70
49679;DHT22;35570;48.218;16.326;2023-02-28T00:10:24;2.30;66.90
49679;DHT22;35570;48.218;16.326;2023-02-28T00:12:51;2.30;66.90
49679;DHT22;35570;48.218;16.326;2023-02-28T00:15:17;2.40;67.60
49679;DHT22;35570;48.218;16.326;2023-02-28T00:17:43;2.20;67.10
49679;DHT22;35570;48.218;16.326;2023-02-28T00:20:11;2.10;67.50
49679;DHT22;35570;48.218;16.326;2023-02-28T00:22:49;2.00;67.20
49679;DHT22;35570;48.218;16.326;2023-02-28T00:25:18;2.30;67.90
49679;DHT22;35570;48.218;16.326;2023-02-28T00:27:45;2.00;67.60
49679;DHT22;35570;48.218;16.326;2023-02-28T00:30:14;2.10;67.40
49679;DHT22;35570;48.218;16.326;2023-02-28T00:32:40;2.00;67.10
49679;DHT22;35570;48.218;16.326;2023-02-28T00:35:07;2.10;66.90
49679;DHT22;35570;48.218;16.326;2023-02-28T00:37:33;2.20;67.30
49679;DHT22;35570;48.218;16.326;2023-02-28T00:39:59;2.20;67.00
49679;DHT22;35570;48.218;16.326;2023-02-28T00:42:26;2.10;66.60
49679;DHT22;35570;48.218;16.326;2023-02-28T00:44:52;2.10;66.90
49679;DHT22;35570;48.218;16.326;2023-02-28T00:47:18;2.00;66.80
49679;DHT22;35570;48.218;16.326;2023-02-28T00:49:44;2.10;66.80
49679;DHT22;35570;48.218;16.326;2023-02-28T00:52:10;2.20;67.30
49679;DHT22;35570;48.218;16.326;2023-02-28T00:54:36;2.10;67.60
49679;DHT22;35570;48.218;16.326;2023-02-28T00:57:02;2.10;66.80
49679;DHT22;35570;48.218;16.326;2023-02-28T00:59:27;2.10;66.70
49679;DHT22;35570;48.218;16.326;2023-02-28T01:01:54;2.10;67.50
49679;DHT22;35570;48.218;16.326;2023-02-28T01:04:19;2.10;67.40
49679;DHT22;35570;48.218;16.326;2023-02-28T01:06:45;2.00;67.10
49679;DHT22;35570;48.218;16.326;2023-02-28T01:09:11;2.10;67.10
49679;DHT22;35570;48.218;16.326;2023-02-28T01:11:38;2.10;67.40
49679;DHT22;35570;48.218;16.326;2023-02-28T01:14:04;2.10;67.70
49679;DHT22;35570;48.218;16.326;2023-02-28T01:16:31;2.10;67.30
49679;DHT22;35570;48.218;16.326;2023-02-28T01:18:59;2.10;66.70
49679;DHT22;35570;48.218;16.326;2023-02-28T01:21:25;3.20;67.90
49679;DHT22;35570;48.218;16.326;2023-02-28T01:23:51;2.10;67.80
49679;DHT22;35570;48.218;16.326;2023-02-28T01:26:20;2.30;66.90
49679;DHT22;35570;48.218;16.326;2023-02-28T01:28:47;2.00;66.60
49679;DHT22;35570;48.218;16.326;2023-02-28T01:31:13;2.00;66.80
49679;DHT22;35570;48.218;16.326;2023-02-28T01:33:40;2.00;66.90
49679;DHT22;35570;48.218;16.326;2023-02-28T01:36:09;2.00;66.60
49679;DHT22;35570;48.218;16.326;2023-02-28T01:38:36;2.00;67.40
49679;DHT22;35570;48.218;16.326;2023-02-28T01:41:02;2.10;68.00
49679;DHT22;35570;48.218;16.326;2023-02-28T01:43:30;1.50;67.20
49679;DHT22;35570;48.218;16.326;2023-02-28T01:45:58;2.10;67.20
49679;DHT22;35570;48.218;16.326;2023-02-28T01:48:37;2.10;66.40
49679;DHT22;35570;48.218;16.326;2023-02-28T01:51:26;2.10;66.70
49679;DHT22;35570;48.218;16.326;2023-02-28T01:53:56;2.20;65.80
49679;DHT22;35570;48.218;16.326;2023-02-28T01:56:27;2.10;66.00
49679;DHT22;35570;48.218;16.326;2023-02-28T01:58:55;2.10;66.30
49679;DHT22;35570;48.218;16.326;2023-02-28T02:01:22;2.00;66.30
49679;DHT22;35570;48.218;16.326;2023-02-28T02:03:54;2.00;66.50
49679;DHT22;35570;48.218;16.326;2023-02-28T02:06:27;2.00;66.60
49679;DHT22;35570;48.218;16.326;2023-02-28T02:08:54;2.00;66.70
49679;DHT22;35570;48.218;16.326;2023-02-28T02:11:22;2.00;66.30
49679;DHT22;35570;48.218;16.326;2023-02-28T02:41:34;2.00;66.60
49679;DHT22;35570;48.218;16.326;2023-02-28T02:44:24;1.90;66.80
49679;DHT22;35570;48.218;16.326;2023-02-28T02:46:55;1.80;67.50
49679;DHT22;35570;48.218;16.326;2023-02-28T02:49:31;1.80;67.50
49679;DHT22;35570;48.218;16.326;2023-02-28T02:51:57;1.80;68.00
49679;DHT22;35570;48.218;16.326;2023-02-28T02:54:36;1.80;68.70
49679;DHT22;35570;48.218;16.326;2023-02-28T02:57:06;1.90;68.60
49679;DHT22;35570;48.218;16.326;2023-02-28T02:59:35;1.80;68.90
49679;DHT22;35570;48.218;16.326;2023-02-28T03:02:04;1.70;69.90
49679;DHT22;35570;48.218;16.326;2023-02-28T03:04:35;1.70;68.30
49679;DHT22;35570;48.218;16.326;2023-02-28T03:07:03;1.70;68.60
49679;DHT22;35570;48.218;16.326;2023-02-28T03:09:29;1.70;69.10
49679;DHT22;35570;48.218;16.326;2023-02-28T03:11:58;1.70;69.40
49679;DHT22;35570;48.218;16.326;2023-02-28T03:17:19;1.60;69.00
49679;DHT22;35570;48.218;16.326;2023-02-28T03:25:08;1.50;69.40
49679;DHT22;35570;48.218;16.326;2023-02-28T03:32:58;1.50;69.70
49679;DHT22;35570;48.218;16.326;2023-02-28T03:35:43;1.40;69.90
49679;DHT22;35570;48.218;16.326;2023-02-28T03:38:22;1.40;70.00
49679;DHT22;35570;48.218;16.326;2023-02-28T03:40:54;1.40;70.20
49679;DHT22;35570;48.218;16.326;2023-02-28T03:43:26;1.40;70.40
49679;DHT22;35570;48.218;16.326;2023-02-28T03:45:54;1.30;70.80
49679;DHT22;35570;48.218;16.326;2023-02-28T03:48:29;1.20;70.70
49679;DHT22;35570;48.218;16.326;2023-02-28T03:50:58;1.20;70.80
49679;DHT22;35570;48.218;16.326;2023-02-28T03:55:59;1.20;71.00
49679;DHT22;35570;48.218;16.326;2023-02-28T03:58:43;1.20;71.10
49679;DHT22;35570;48.218;16.326;2023-02-28T04:01:25;1.10;71.40
49679;DHT22;35570;48.218;16.326;2023-02-28T04:03:53;1.10;71.80
49679;DHT22;35570;48.218;16.326;2023-02-28T04:06:21;1.10;71.80
49679;DHT22;35570;48.218;16.326;2023-02-28T04:08:47;1.10;72.10
49679;DHT22;35570;48.218;16.326;2023-02-28T04:13:51;1.10;72.20
49679;DHT22;35570;48.218;16.326;2023-02-28T04:16:17;1.20;72.30
49679;DHT22;35570;48.218;16.326;2023-02-28T04:18:43;1.30;72.20
49679;DHT22;35570;48.218;16.326;2023-02-28T04:21:09;1.30;72.00
49679;DHT22;35570;48.218;16.326;2023-02-28T04:23:35;1.30;73.00
49679;DHT22;35570;48.218;16.326;2023-02-28T04:26:01;1.30;72.00
49679;DHT22;35570;48.218;16.326;2023-02-28T04:28:26;1.30;72.10
49679;DHT22;35570;48.218;16.326;2023-02-28T04:31:04;1.20;72.90
49679;DHT22;35570;48.218;16.326;2023-02-28T04:33:31;1.30;72.90
49679;DHT22;35570;48.218;16.326;2023-02-28T04:36:08;1.30;74.20
49679;DHT22;35570;48.218;16.326;2023-02-28T04:38:35;1.40;74.00
49679;DHT22;35570;48.218;16.326;2023-02-28T04:41:02;1.40;74.00
49679;DHT22;35570;48.218;16.326;2023-02-28T04:43:29;1.40;73.90
49679;DHT22;35570;48.218;16.326;2023-02-28T04:45:55;1.50;74.50
49679;DHT22;35570;48.218;16.326;2023-02-28T04:48:22;1.50;74.50
49679;DHT22;35570;48.218;16.326;2023-02-28T04:50:48;1.60;73.90
49679;DHT22;35570;48.218;16.326;2023-02-28T04:53:14;1.60;74.70
49679;DHT22;35570;48.218;16.326;2023-02-28T04:55:40;1.60;74.40
49679;DHT22;35570;48.218;16.326;2023-02-28T04:58:06;1.60;74.90
49679;DHT22;35570;48.218;16.326;2023-02-28T05:00:31;1.60;74.20
49679;DHT22;35570;48.218;16.326;2023-02-28T05:02:57;1.70;74.60
49679;DHT22;35570;48.218;16.326;2023-02-28T05:05:22;1.70;74.20
49679;DHT22;35570;48.218;16.326;2023-02-28T05:07:48;1.60;73.60
49679;DHT22;35570;48.218;16.326;2023-02-28T05:10:14;1.60;72.80
49679;DHT22;35570;48.218;16.326;2023-02-28T05:12:39;1.60;73.20
49679;DHT22;35570;48.218;16.326;2023-02-28T05:15:05;1.50;73.40
49679;DHT22;35570;48.218;16.326;2023-02-28T05:17:31;1.50;73.00
49679;DHT22;35570;48.218;16.326;2023-02-28T05:19:57;1.40;73.00
49679;DHT22;35570;48.218;16.326;2023-02-28T05:22:22;1.40;73.90
49679;DHT22;35570;48.218;16.326;2023-02-28T05:24:48;1.30;74.30
49679;DHT22;35570;48.218;16.326;2023-02-28T05:27:14;1.30;74.20
49679;DHT22;35570;48.218;16.326;2023-02-28T05:29:39;1.20;74.40
49679;DHT22;35570;48.218;16.326;2023-02-28T05:32:12;1.10;74.50
49679;DHT22;35570;48.218;16.326;2023-02-28T05:34:38;1.10;75.20
49679;DHT22;35570;48.218;16.326;2023-02-28T05:37:05;1.10;76.10
49679;DHT22;35570;48.218;16.326;2023-02-28T05:39:31;1.10;75.70
49679;DHT22;35570;48.218;16.326;2023-02-28T05:41:57;1.10;75.70
49679;DHT22;35570;48.218;16.326;2023-02-28T05:44:23;1.10;75.40
49679;DHT22;35570;48.218;16.326;2023-02-28T05:46:48;1.10;75.50
49679;DHT22;35570;48.218;16.326;2023-02-28T05:49:14;1.00;75.80
49679;DHT22;35570;48.218;16.326;2023-02-28T05:51:40;1.00;76.10
49679;DHT22;35570;48.218;16.326;2023-02-28T05:54:06;1.00;76.20
49679;DHT22;35570;48.218;16.326;2023-02-28T05:56:32;1.10;76.60
49679;DHT22;35570;48.218;16.326;2023-02-28T05:58:59;1.10;76.50
49679;DHT22;35570;48.218;16.326;2023-02-28T06:04:01;1.10;76.10
49679;DHT22;35570;48.218;16.326;2023-02-28T06:06:28;1.00;76.60
49679;DHT22;35570;48.218;16.326;2023-02-28T06:08:55;1.00;77.00
49679;DHT22;35570;48.218;16.326;2023-02-28T06:11:20;1.10;77.00
49679;DHT22;35570;48.218;16.326;2023-02-28T06:13:46;1.10;76.20
49679;DHT22;35570;48.218;16.326;2023-02-28T06:16:12;1.10;77.00
49679;DHT22;35570;48.218;16.326;2023-02-28T06:18:43;1.20;77.40
49679;DHT22;35570;48.218;16.326;2023-02-28T06:21:09;1.20;76.60
49679;DHT22;35570;48.218;16.326;2023-02-28T06:23:34;1.30;77.30
49679;DHT22;35570;48.218;16.326;2023-02-28T06:26:00;1.40;77.00
49679;DHT22;35570;48.218;16.326;2023-02-28T06:28:26;1.30;76.50
49679;DHT22;35570;48.218;16.326;2023-02-28T06:30:51;1.40;76.20
49679;DHT22;35570;48.218;16.326;2023-02-28T06:33:17;1.40;75.80
49679;DHT22;35570;48.218;16.326;2023-02-28T06:35:46;1.40;76.60
49679;DHT22;35570;48.218;16.326;2023-02-28T06:38:11;1.50;76.20
49679;DHT22;35570;48.218;16.326;2023-02-28T06:40:37;1.50;77.40
49679;DHT22;35570;48.218;16.326;2023-02-28T06:43:03;1.60;78.20
49679;DHT22;35570;48.218;16.326;2023-02-28T06:45:29;1.70;78.20
49679;DHT22;35570;48.218;16.326;2023-02-28T06:47:55;1.70;76.20
49679;DHT22;35570;48.218;16.326;2023-02-28T06:50:20;1.70;77.50
49679;DHT22;35570;48.218;16.326;2023-02-28T06:52:47;1.80;76.40
49679;DHT22;35570;48.218;16.326;2023-02-28T06:55:13;1.80;76.40
49679;DHT22;35570;48.218;16.326;2023-02-28T06:57:39;1.90;77.00
49679;DHT22;35570;48.218;16.326;2023-02-28T07:00:08;2.00;76.20
49679;DHT22;35570;48.218;16.326;2023-02-28T07:02:35;2.00;74.00
49679;DHT22;35570;48.218;16.326;2023-02-28T07:05:01;2.10;74.90
49679;DHT22;35570;48.218;16.326;2023-02-28T07:07:26;2.10;73.00
49679;DHT22;35570;48.218;16.326;2023-02-28T07:09:52;2.10;73.50
49679;DHT22;35570;48.218;16.326;2023-02-28T07:12:18;2.10;74.20
49679;DHT22;35570;48.218;16.326;2023-02-28T07:14:43;2.10;74.00
49679;DHT22;35570;48.218;16.326;2023-02-28T07:17:10;2.20;73.20
49679;DHT22;35570;48.218;16.326;2023-02-28T07:19:38;2.20;73.90
49679;DHT22;35570;48.218;16.326;2023-02-28T07:22:04;2.30;73.30
49679;DHT22;35570;48.218;16.326;2023-02-28T07:24:30;2.40;73.70
49679;DHT22;35570;48.218;16.326;2023-02-28T07:26:56;2.40;73.20
49679;DHT22;35570;48.218;16.326;2023-02-28T07:29:22;2.50;72.50
49679;DHT22;35570;48.218;16.326;2023-02-28T07:31:48;2.50;71.80
49679;DHT22;35570;48.218;16.326;2023-02-28T07:34:15;2.60;72.20
49679;DHT22;35570;48.218;16.326;2023-02-28T07:36:41;2.70;71.90
49679;DHT22;35570;48.218;16.326;2023-02-28T07:39:07;2.80;72.20
49679;DHT22;35570;48.218;16.326;2023-02-28T07:41:34;2.70;70.70
49679;DHT22;35570;48.218;16.326;2023-02-28T07:44:04;2.70;71.10
49679;DHT22;35570;48.218;16.326;2023-02-28T07:46:30;2.80;71.90
49679;DHT22;35570;48.218;16.326;2023-02-28T07:49:00;2.90;70.70
49679;DHT22;35570;48.218;16.326;2023-02-28T07:51:28;3.00;70.60
49679;DHT22;35570;48.218;16.326;2023-02-28T07:53:54;3.00;71.70
49679;DHT22;35570;48.218;16.326;2023-02-28T07:56:20;3.20;70.50
49679;DHT22;35570;48.218;16.326;2023-02-28T07:58:45;3.20;70.40
49679;DHT22;35570;48.218;16.326;2023-02-28T08:01:11;3.30;69.90
49679;DHT22;35570;48.218;16.326;2023-02-28T08:03:38;3.40;68.50
49679;DHT22;35570;48.218;16.326;2023-02-28T08:06:04;3.50;69.10
49679;DHT22;35570;48.218;16.326;2023-02-28T08:08:30;3.60;69.50
49679;DHT22;35570;48.218;16.326;2023-02-28T08:11:01;3.60;68.40
49679;DHT22;35570;48.218;16.326;2023-02-28T08:13:28;3.70;68.10
49679;DHT22;35570;48.218;16.326;2023-02-28T08:15:55;3.80;69.30
49679;DHT22;35570;48.218;16.326;2023-02-28T08:18:22;4.00;68.30
49679;DHT22;35570;48.218;16.326;2023-02-28T08:20:48;4.10;66.30
49679;DHT22;35570;48.218;16.326;2023-02-28T08:23:14;4.10;67.80
49679;DHT22;35570;48.218;16.326;2023-02-28T08:25:40;4.30;67.40
49679;DHT22;35570;48.218;16.326;2023-02-28T08:28:05;4.40;66.60
49679;DHT22;35570;48.218;16.326;2023-02-28T08:30:31;4.50;65.40
49679;DHT22;35570;48.218;16.326;2023-02-28T08:32:57;4.70;64.90
49679;DHT22;35570;48.218;16.326;2023-02-28T08:35:22;4.80;65.10
49679;DHT22;35570;48.218;16.326;2023-02-28T08:37:48;5.00;64.70
49679;DHT22;35570;48.218;16.326;2023-02-28T08:40:15;5.10;64.90
49679;DHT22;35570;48.218;16.326;2023-02-28T08:42:44;5.20;64.70
49679;DHT22;35570;48.218;16.326;2023-02-28T08:45:11;5.30;64.50
49679;DHT22;35570;48.218;16.326;2023-02-28T08:47:37;5.40;63.60
49679;DHT22;35570;48.218;16.326;2023-02-28T08:50:03;5.60;63.40
49679;DHT22;35570;48.218;16.326;2023-02-28T08:52:29;5.80;63.50
49679;DHT22;35570;48.218;16.326;2023-02-28T08:54:54;5.90;61.60
49679;DHT22;35570;48.218;16.326;2023-02-28T08:57:20;6.30;62.20
49679;DHT22;35570;48.218;16.326;2023-02-28T08:59:46;6.60;61.80
49679;DHT22;35570;48.218;16.326;2023-02-28T09:02:14;6.80;59.90
49679;DHT22;35570;48.218;16.326;2023-02-28T09:04:40;6.90;59.00
49679;DHT22;35570;48.218;16.326;2023-02-28T09:07:07;6.90;59.20
49679;DHT22;35570;48.218;16.326;2023-02-28T09:09:32;7.00;59.90
49679;DHT22;35570;48.218;16.326;2023-02-28T09:11:58;7.10;60.20
49679;DHT22;35570;48.218;16.326;2023-02-28T09:14:24;7.30;60.60
49679;DHT22;35570;48.218;16.326;2023-02-28T09:16:50;7.40;58.60
49679;DHT22;35570;48.218;16.326;2023-02-28T09:19:16;7.60;58.50
49679;DHT22;35570;48.218;16.326;2023-02-28T09:21:41;7.70;57.70
49679;DHT22;35570;48.218;16.326;2023-02-28T09:24:07;7.70;56.50
49679;DHT22;35570;48.218;16.326;2023-02-28T09:26:33;8.00;57.30
49679;DHT22;35570;48.218;16.326;2023-02-28T09:29:00;8.20;55.30
49679;DHT22;35570;48.218;16.326;2023-02-28T09:31:27;8.20;54.30
49679;DHT22;35570;48.218;16.326;2023-02-28T09:33:56;7.80;54.70
49679;DHT22;35570;48.218;16.326;2023-02-28T09:36:22;7.80;55.80
49679;DHT22;35570;48.218;16.326;2023-02-28T09:38:49;7.90;57.40
49679;DHT22;35570;48.218;16.326;2023-02-28T09:41:25;8.10;57.10
49679;DHT22;35570;48.218;16.326;2023-02-28T09:43:56;8.40;55.90
49679;DHT22;35570;48.218;16.326;2023-02-28T09:48:51;8.60;54.80
49679;DHT22;35570;48.218;16.326;2023-02-28T09:51:33;8.90;55.40
49679;DHT22;35570;48.218;16.326;2023-02-28T09:54:00;9.00;55.20
49679;DHT22;35570;48.218;16.326;2023-02-28T09:56:33;9.10;53.90
49679;DHT22;35570;48.218;16.326;2023-02-28T10:02:01;9.60;53.80
49679;DHT22;35570;48.218;16.326;2023-02-28T10:10:35;10.30;52.10
49679;DHT22;35570;48.218;16.326;2023-02-28T10:13:04;10.30;51.00
49679;DHT22;35570;48.218;16.326;2023-02-28T10:15:34;10.40;52.20
49679;DHT22;35570;48.218;16.326;2023-02-28T10:18:04;10.60;51.20
49679;DHT22;35570;48.218;16.326;2023-02-28T10:20:33;10.30;51.10
49679;DHT22;35570;48.218;16.326;2023-02-28T10:25:37;9.50;52.30
49679;DHT22;35570;48.218;16.326;2023-02-28T10:28:14;9.10;52.90
49679;DHT22;35570;48.218;16.326;2023-02-28T10:30:43;9.10;54.30
49679;DHT22;35570;48.218;16.326;2023-02-28T10:33:34;9.10;54.70
49679;DHT22;35570;48.218;16.326;2023-02-28T10:36:00;9.40;54.10
49679;DHT22;35570;48.218;16.326;2023-02-28T10:38:28;9.80;53.30
49679;DHT22;35570;48.218;16.326;2023-02-28T10:43:29;11.10;51.60
49679;DHT22;35570;48.218;16.326;2023-02-28T10:46:04;12.10;50.90
49679;DHT22;35570;48.218;16.326;2023-02-28T10:48:37;13.20;49.70
49679;DHT22;35570;48.218;16.326;2023-02-28T10:51:08;14.10;45.30
49679;DHT22;35570;48.218;16.326;2023-02-28T10:53:54;14.50;44.20
49679;DHT22;35570;48.218;16.326;2023-02-28T10:56:23;14.40;43.90
49679;DHT22;35570;48.218;16.326;2023-02-28T10:59:28;15.10;44.60
49679;DHT22;35570;48.218;16.326;2023-02-28T11:01:55;15.40;43.30
49679;DHT22;35570;48.218;16.326;2023-02-28T11:07:16;15.20;42.60
49679;DHT22;35570;48.218;16.326;2023-02-28T11:09:46;15.70;43.80
49679;DHT22;35570;48.218;16.326;2023-02-28T11:14:56;16.70;40.30
49679;DHT22;35570;48.218;16.326;2023-02-28T11:17:27;16.50;40.80
49679;DHT22;35570;48.218;16.326;2023-02-28T11:19:56;16.40;40.40
49679;DHT22;35570;48.218;16.326;2023-02-28T11:22:28;16.70;40.50
49679;DHT22;35570;48.218;16.326;2023-02-28T11:24:59;16.90;40.80
49679;DHT22;35570;48.218;16.326;2023-02-28T11:29:55;17.10;40.30
49679;DHT22;35570;48.218;16.326;2023-02-28T11:32:23;17.50;40.60
49679;DHT22;35570;48.218;16.326;2023-02-28T11:37:36;17.60;37.70
49679;DHT22;35570;48.218;16.326;2023-02-28T11:40:09;17.30;37.80
49679;DHT22;35570;48.218;16.326;2023-02-28T11:42:53;17.30;39.00
49679;DHT22;35570;48.218;16.326;2023-02-28T11:45:55;17.40;39.10
49679;DHT22;35570;48.218;16.326;2023-02-28T11:51:24;17.20;38.10
49679;DHT22;35570;48.218;16.326;2023-02-28T11:54:14;16.90;37.90
49679;DHT22;35570;48.218;16.326;2023-02-28T11:56:48;17.20;38.90
49679;DHT22;35570;48.218;16.326;2023-02-28T12:02:02;16.90;39.20
49679;DHT22;35570;48.218;16.326;2023-02-28T12:09:46;14.50;38.90
49679;DHT22;35570;48.218;16.326;2023-02-28T12:15:17;14.60;40.70
49679;DHT22;35570;48.218;16.326;2023-02-28T12:20:33;14.60;38.70
49679;DHT22;35570;48.218;16.326;2023-02-28T12:28:27;15.50;38.60
49679;DHT22;35570;48.218;16.326;2023-02-28T12:31:00;15.90;38.10
49679;DHT22;35570;48.218;16.326;2023-02-28T12:33:33;16.00;38.80
49679;DHT22;35570;48.218;16.326;2023-02-28T12:36:05;15.90;37.50
49679;DHT22;35570;48.218;16.326;2023-02-28T12:38:49;16.00;37.30
49679;DHT22;35570;48.218;16.326;2023-02-28T12:41:20;15.80;38.40
49679;DHT22;35570;48.218;16.326;2023-02-28T12:44:17;16.30;38.40
49679;DHT22;35570;48.218;16.326;2023-02-28T12:46:49;16.40;39.10
49679;DHT22;35570;48.218;16.326;2023-02-28T12:49:21;16.30;36.90
49679;DHT22;35570;48.218;16.326;2023-02-28T12:51:48;16.20;36.70
49679;DHT22;35570;48.218;16.326;2023-02-28T12:56:54;16.00;36.00
49679;DHT22;35570;48.218;16.326;2023-02-28T13:10:08;15.90;38.50
49679;DHT22;35570;48.218;16.326;2023-02-28T13:12:35;16.00;38.70
49679;DHT22;35570;48.218;16.326;2023-02-28T13:15:08;16.10;38.20
49679;DHT22;35570;48.218;16.326;2023-02-28T13:17:39;16.30;36.90
49679;DHT22;35570;48.218;16.326;2023-02-28T13:20:16;15.90;35.20
49679;DHT22;35570;48.218;16.326;2023-02-28T13:22:47;14.90;36.90
49679;DHT22;35570;48.218;16.326;2023-02-28T13:27:57;13.50;39.30
49679;DHT22;35570;48.218;16.326;2023-02-28T13:33:35;14.20;38.30
49679;DHT22;35570;48.218;16.326;2023-02-28T13:38:46;15.00;37.30
49679;DHT22;35570;48.218;16.326;2023-02-28T13:44:15;15.60;37.50
49679;DHT22;35570;48.218;16.326;2023-02-28T13:49:32;15.50;37.00
49679;DHT22;35570;48.218;16.326;2023-02-28T14:00:28;15.90;36.40
49679;DHT22;35570;48.218;16.326;2023-02-28T14:03:04;15.90;37.20
49679;DHT22;35570;48.218;16.326;2023-02-28T14:05:33;16.20;36.70
49679;DHT22;35570;48.218;16.326;2023-02-28T14:08:05;16.10;36.70
49679;DHT22;35570;48.218;16.326;2023-02-28T14:10:44;16.10;36.80
49679;DHT22;35570;48.218;16.326;2023-02-28T14:16:16;15.60;35.90
49679;DHT22;35570;48.218;16.326;2023-02-28T14:21:31;14.00;37.20
49679;DHT22;35570;48.218;16.326;2023-02-28T14:37:27;12.40;42.10
49679;DHT22;35570;48.218;16.326;2023-02-28T14:39:53;12.70;41.50
49679;DHT22;35570;48.218;16.326;2023-02-28T14:42:30;13.00;42.30
49679;DHT22;35570;48.218;16.326;2023-02-28T14:44:56;13.20;41.50
49679;DHT22;35570;48.218;16.326;2023-02-28T14:49:53;12.90;40.90
49679;DHT22;35570;48.218;16.326;2023-02-28T14:54:58;12.50;43.60
49679;DHT22;35570;48.218;16.326;2023-02-28T15:00:09;12.30;43.20
49679;DHT22;35570;48.218;16.326;2023-02-28T15:02:38;12.50;43.20
49679;DHT22;35570;48.218;16.326;2023-02-28T15:07:46;12.60;42.30
49679;DHT22;35570;48.218;16.326;2023-02-28T15:10:24;12.70;42.40
49679;DHT22;35570;48.218;16.326;2023-02-28T15:12:57;12.90;43.50
49679;DHT22;35570;48.218;16.326;2023-02-28T15:16:06;13.00;41.20
49679;DHT22;35570;48.218;16.326;2023-02-28T15:21:07;13.20;42.90
49679;DHT22;35570;48.218;16.326;2023-02-28T15:23:36;13.00;41.90
49679;DHT22;35570;48.218;16.326;2023-02-28T15:26:03;12.60;41.70
49679;DHT22;35570;48.218;16.326;2023-02-28T15:28:30;12.30;44.20
49679;DHT22;35570;48.218;16.326;2023-02-28T15:30:59;12.00;43.80
49679;DHT22;35570;48.218;16.326;2023-02-28T15:33:27;11.90;44.00
49679;DHT22;35570;48.218;16.326;2023-02-28T15:36:15;11.80;44.30
49679;DHT22;35570;48.218;16.326;2023-02-28T15:38:43;11.70;44.50
49679;DHT22;35570;48.218;16.326;2023-02-28T15:44:27;11.40;44.50
49679;DHT22;35570;48.218;16.326;2023-02-28T15:47:02;11.30;45.00
49679;DHT22;35570;48.218;16.326;2023-02-28T15:49:39;11.00;45.40
49679;DHT22;35570;48.218;16.326;2023-02-28T15:52:05;10.70;46.80
49679;DHT22;35570;48.218;16.326;2023-02-28T15:54:34;10.40;47.20
49679;DHT22;35570;48.218;16.326;2023-02-28T15:57:22;10.20;47.40
49679;DHT22;35570;48.218;16.326;2023-02-28T16:00:01;9.90;48.10
49679;DHT22;35570;48.218;16.326;2023-02-28T16:02:35;9.60;47.80
49679;DHT22;35570;48.218;16.326;2023-02-28T16:07:34;9.00;49.70
49679;DHT22;35570;48.218;16.326;2023-02-28T16:10:01;8.90;49.80
49679;DHT22;35570;48.218;16.326;2023-02-28T16:12:31;8.80;51.60
49679;DHT22;35570;48.218;16.326;2023-02-28T16:15:03;8.70;49.40
49679;DHT22;35570;48.218;16.326;2023-02-28T16:17:37;8.50;50.10
49679;DHT22;35570;48.218;16.326;2023-02-28T16:20:23;8.40;49.80
49679;DHT22;35570;48.218;16.326;2023-02-28T16:22:49;8.30;49.10
49679;DHT22;35570;48.218;16.326;2023-02-28T16:25:21;8.10;49.20
49679;DHT22;35570;48.218;16.326;2023-02-28T16:27:50;8.10;49.20
49679;DHT22;35570;48.218;16.326;2023-02-28T16:30:24;7.90;50.70
49679;DHT22;35570;48.218;16.326;2023-02-28T16:32:51;7.80;50.90
49679;DHT22;35570;48.218;16.326;2023-02-28T16:35:18;7.70;51.70
49679;DHT22;35570;48.218;16.326;2023-02-28T16:37:44;7.60;52.20
49679;DHT22;35570;48.218;16.326;2023-02-28T16:40:18;7.60;53.80
49679;DHT22;35570;48.218;16.326;2023-02-28T16:42:47;7.50;53.00
49679;DHT22;35570;48.218;16.326;2023-02-28T16:45:25;7.40;53.40
49679;DHT22;35570;48.218;16.326;2023-02-28T16:47:52;7.40;54.30
49679;DHT22;35570;48.218;16.326;2023-02-28T16:50:27;7.30;53.20
49679;DHT22;35570;48.218;16.326;2023-02-28T16:52:53;7.20;54.30
49679;DHT22;35570;48.218;16.326;2023-02-28T16:55:20;7.20;54.40
49679;DHT22;35570;48.218;16.326;2023-02-28T16:57:54;7.20;54.10
49679;DHT22;35570;48.218;16.326;2023-02-28T17:00:20;7.10;54.20
49679;DHT22;35570;48.218;16.326;2023-02-28T17:02:46;7.10;54.50
49679;DHT22;35570;48.218;16.326;2023-02-28T17:05:13;7.00;53.90
49679;DHT22;35570;48.218;16.326;2023-02-28T17:07:41;6.90;54.20
49679;DHT22;35570;48.218;16.326;2023-02-28T17:10:26;6.90;55.30
49679;DHT22;35570;48.218;16.326;2023-02-28T17:12:52;6.90;54.40
49679;DHT22;35570;48.218;16.326;2023-02-28T17:15:18;6.90;54.40
49679;DHT22;35570;48.218;16.326;2023-02-28T17:17:45;6.70;54.10
49679;DHT22;35570;48.218;16.326;2023-02-28T17:20:22;6.70;54.20
49679;DHT22;35570;48.218;16.326;2023-02-28T17:22:50;6.60;54.80
49679;DHT22;35570;48.218;16.326;2023-02-28T17:25:37;6.60;54.60
49679;DHT22;35570;48.218;16.326;2023-02-28T17:28:03;6.70;54.50
49679;DHT22;35570;48.218;16.326;2023-02-28T17:30:29;6.60;54.40
49679;DHT22;35570;48.218;16.326;2023-02-28T17:32:55;6.60;54.80
49679;DHT22;35570;48.218;16.326;2023-02-28T17:35:22;6.50;54.90
49679;DHT22;35570;48.218;16.326;2023-02-28T17:37:49;6.50;55.50
49679;DHT22;35570;48.218;16.326;2023-02-28T17:40:18;6.60;56.20
49679;DHT22;35570;48.218;16.326;2023-02-28T17:42:44;6.60;55.20
49679;DHT22;35570;48.218;16.326;2023-02-28T17:45:12;6.60;54.60
49679;DHT22;35570;48.218;16.326;2023-02-28T17:47:38;6.50;55.00
49679;DHT22;35570;48.218;16.326;2023-02-28T17:50:04;6.60;55.20
49679;DHT22;35570;48.218;16.326;2023-02-28T17:52:30;6.50;56.20
49679;DHT22;35570;48.218;16.326;2023-02-28T17:55:03;6.50;57.60
49679;DHT22;35570;48.218;16.326;2023-02-28T17:57:29;6.50;60.00
49679;DHT22;35570;48.218;16.326;2023-02-28T17:59:55;6.50;59.50
49679;DHT22;35570;48.218;16.326;2023-02-28T18:02:22;6.60;58.10
49679;DHT22;35570;48.218;16.326;2023-02-28T18:04:48;6.50;58.20
49679;DHT22;35570;48.218;16.326;2023-02-28T18:07:14;6.40;58.60
49679;DHT22;35570;48.218;16.326;2023-02-28T18:09:40;6.40;58.30
49679;DHT22;35570;48.218;16.326;2023-02-28T18:12:05;6.40;57.90
49679;DHT22;35570;48.218;16.326;2023-02-28T18:14:31;6.40;58.20
49679;DHT22;35570;48.218;16.326;2023-02-28T18:16:58;6.40;58.40
49679;DHT22;35570;48.218;16.326;2023-02-28T18:19:24;6.30;58.70
49679;DHT22;35570;48.218;16.326;2023-02-28T18:21:52;6.20;58.30
49679;DHT22;35570;48.218;16.326;2023-02-28T18:24:19;6.30;58.00
49679;DHT22;35570;48.218;16.326;2023-02-28T18:26:45;6.20;58.60
49679;DHT22;35570;48.218;16.326;2023-02-28T18:29:23;6.10;59.00
49679;DHT22;35570;48.218;16.326;2023-02-28T18:31:50;6.10;58.80